WOW85NB EGCC-BIKF
Flight info
| Callsign | WOW85NB |
|---|---|
| Flight time | 2h 31m |
| Altitude | 36000 |
| Route | EKLAD UY53 WAL M146 LUSOD DCT GOMUP/M078F360 DCT BREKI DCT BASLU BASLU3K |
| Aircraft | A321/M-SDE3FGHIRWY/LB1 |
Departure
| Time | 2026-04-26 22:21 |
|---|---|
| Airport | Manchester Airport (EGCC) |
Arrival
| Time | 2026-04-27 00:52 |
|---|---|
| Airport | Keflavik International Airport (BIKF) |
| Time | Latitude | Longitude | Altitude | Speed | Heading |
|---|---|---|---|---|---|
| 2026-04-26 21:51 | 53.36579 | -2.27986 | 255 ft | 0 kts | 45° |
| 2026-04-26 22:10 | 53.36578 | -2.27987 | 255 ft | 2 kts | 45° |
| 2026-04-26 22:10 | 53.36564 | -2.28011 | 255 ft | 3 kts | 45° |
| 2026-04-26 22:10 | 53.36551 | -2.28031 | 255 ft | 3 kts | 47° |
| 2026-04-26 22:10 | 53.36540 | -2.28058 | 255 ft | 3 kts | 77° |
| 2026-04-26 22:11 | 53.36540 | -2.28085 | 255 ft | 3 kts | 129° |
| 2026-04-26 22:11 | 53.36537 | -2.28081 | 255 ft | 3 kts | 135° |
| 2026-04-26 22:11 | 53.36522 | -2.28056 | 255 ft | 3 kts | 135° |
| 2026-04-26 22:11 | 53.36510 | -2.28036 | 255 ft | 0 kts | 135° |
| 2026-04-26 22:14 | 53.36509 | -2.28035 | 255 ft | 1 kts | 135° |
| 2026-04-26 22:14 | 53.36457 | -2.27973 | 255 ft | 13 kts | 145° |
| 2026-04-26 22:14 | 53.36381 | -2.27959 | 255 ft | 11 kts | 212° |
| 2026-04-26 22:15 | 53.36323 | -2.28038 | 255 ft | 11 kts | 221° |
| 2026-04-26 22:15 | 53.36259 | -2.28073 | 255 ft | 9 kts | 181° |
| 2026-04-26 22:15 | 53.36203 | -2.28042 | 255 ft | 8 kts | 139° |
| 2026-04-26 22:15 | 53.36138 | -2.27950 | 255 ft | 18 kts | 141° |
| 2026-04-26 22:16 | 53.36035 | -2.27815 | 255 ft | 18 kts | 142° |
| 2026-04-26 22:16 | 53.35926 | -2.27730 | 255 ft | 17 kts | 182° |
| 2026-04-26 22:16 | 53.35810 | -2.27722 | 252 ft | 15 kts | 159° |
| 2026-04-26 22:16 | 53.35712 | -2.27633 | 248 ft | 17 kts | 150° |
| 2026-04-26 22:17 | 53.35627 | -2.27503 | 246 ft | 17 kts | 104° |
| 2026-04-26 22:17 | 53.35686 | -2.27323 | 255 ft | 22 kts | 52° |
| 2026-04-26 22:17 | 53.35793 | -2.27093 | 255 ft | 25 kts | 51° |
| 2026-04-26 22:17 | 53.35885 | -2.26871 | 256 ft | 22 kts | 51° |
| 2026-04-26 22:18 | 53.35972 | -2.26666 | 256 ft | 21 kts | 51° |
| 2026-04-26 22:18 | 53.36066 | -2.26479 | 256 ft | 21 kts | 50° |
| 2026-04-26 22:18 | 53.36156 | -2.26300 | 255 ft | 20 kts | 49° |
| 2026-04-26 22:18 | 53.36243 | -2.26175 | 255 ft | 17 kts | 58° |
| 2026-04-26 22:19 | 53.36255 | -2.26071 | 256 ft | 7 kts | 118° |
| 2026-04-26 22:19 | 53.36256 | -2.26000 | 255 ft | 9 kts | 78° |
| 2026-04-26 22:19 | 53.36282 | -2.25830 | 257 ft | 19 kts | 101° |
| 2026-04-26 22:20 | 53.36221 | -2.25736 | 261 ft | 7 kts | 205° |
| 2026-04-26 22:20 | 53.36199 | -2.25789 | 259 ft | 12 kts | 231° |
| 2026-04-26 22:20 | 53.35903 | -2.26395 | 267 ft | 107 kts | 231° |
| 2026-04-26 22:20 | 53.35274 | -2.27701 | 276 ft | 175 kts | 231° |
| 2026-04-26 22:21 | 53.34484 | -2.29307 | 1077 ft | 177 kts | 230° |
| 2026-04-26 22:21 | 53.34036 | -2.30179 | 1652 ft | 176 kts | 229° |
| 2026-04-26 22:21 | 53.33211 | -2.31672 | 2665 ft | 173 kts | 227° |
| 2026-04-26 22:21 | 53.32394 | -2.33162 | 3455 ft | 179 kts | 236° |
| 2026-04-26 22:22 | 53.31884 | -2.35073 | 3880 ft | 182 kts | 253° |
| 2026-04-26 22:22 | 53.31684 | -2.37110 | 4287 ft | 188 kts | 266° |
| 2026-04-26 22:22 | 53.31742 | -2.39320 | 4720 ft | 193 kts | 273° |
| 2026-04-26 22:22 | 53.31816 | -2.41626 | 5007 ft | 207 kts | 272° |
| 2026-04-26 22:23 | 53.31878 | -2.44114 | 5243 ft | 221 kts | 271° |
| 2026-04-26 22:23 | 53.31848 | -2.46798 | 5468 ft | 239 kts | 262° |
| 2026-04-26 22:23 | 53.31464 | -2.49548 | 5697 ft | 246 kts | 252° |
| 2026-04-26 22:23 | 53.30941 | -2.52337 | 5898 ft | 258 kts | 252° |
| 2026-04-26 22:24 | 53.30404 | -2.55243 | 6127 ft | 264 kts | 253° |
| 2026-04-26 22:24 | 53.29863 | -2.58194 | 6349 ft | 266 kts | 253° |
| 2026-04-26 22:24 | 53.29324 | -2.61152 | 6579 ft | 267 kts | 253° |
| 2026-04-26 22:24 | 53.28782 | -2.64123 | 6812 ft | 269 kts | 253° |
| 2026-04-26 22:25 | 53.28228 | -2.67130 | 7553 ft | 271 kts | 253° |
| 2026-04-26 22:25 | 53.27674 | -2.70116 | 8314 ft | 274 kts | 253° |
| 2026-04-26 22:25 | 53.27105 | -2.73180 | 9031 ft | 279 kts | 253° |
| 2026-04-26 22:25 | 53.26527 | -2.76292 | 9751 ft | 282 kts | 253° |
| 2026-04-26 22:26 | 53.26033 | -2.79468 | 10477 ft | 284 kts | 263° |
| 2026-04-26 22:26 | 53.26126 | -2.82753 | 11194 ft | 286 kts | 283° |
| 2026-04-26 22:26 | 53.26890 | -2.85819 | 11929 ft | 289 kts | 302° |
| 2026-04-26 22:26 | 53.28107 | -2.88637 | 12194 ft | 310 kts | 304° |
| 2026-04-26 22:27 | 53.29448 | -2.91627 | 12360 ft | 331 kts | 305° |
| 2026-04-26 22:27 | 53.30854 | -2.94737 | 12862 ft | 339 kts | 305° |
| 2026-04-26 22:27 | 53.32282 | -2.97904 | 13492 ft | 343 kts | 305° |
| 2026-04-26 22:27 | 53.33722 | -3.01109 | 14130 ft | 346 kts | 305° |
| 2026-04-26 22:28 | 53.35169 | -3.04346 | 14759 ft | 349 kts | 305° |
| 2026-04-26 22:28 | 53.36606 | -3.07576 | 15376 ft | 352 kts | 305° |
| 2026-04-26 22:28 | 53.38071 | -3.10885 | 15987 ft | 355 kts | 305° |
| 2026-04-26 22:28 | 53.39613 | -3.14142 | 16570 ft | 360 kts | 311° |
| 2026-04-26 22:29 | 53.41378 | -3.17152 | 17136 ft | 363 kts | 313° |
| 2026-04-26 22:29 | 53.43160 | -3.20178 | 17705 ft | 366 kts | 313° |
| 2026-04-26 22:29 | 53.44954 | -3.23230 | 18253 ft | 369 kts | 313° |
| 2026-04-26 22:29 | 53.46762 | -3.26309 | 18783 ft | 372 kts | 313° |
| 2026-04-26 22:30 | 53.48582 | -3.29412 | 19305 ft | 374 kts | 313° |
| 2026-04-26 22:30 | 53.50415 | -3.32546 | 19815 ft | 377 kts | 313° |
| 2026-04-26 22:30 | 53.52259 | -3.35706 | 20316 ft | 380 kts | 313° |
| 2026-04-26 22:30 | 53.54085 | -3.38846 | 20786 ft | 382 kts | 313° |
| 2026-04-26 22:31 | 53.55945 | -3.42054 | 21269 ft | 385 kts | 313° |
| 2026-04-26 22:31 | 53.57793 | -3.45337 | 21728 ft | 387 kts | 308° |
| 2026-04-26 22:31 | 53.59396 | -3.48979 | 22182 ft | 389 kts | 304° |
| 2026-04-26 22:31 | 53.60961 | -3.52707 | 22640 ft | 391 kts | 304° |
| 2026-04-26 22:32 | 53.62531 | -3.56448 | 23070 ft | 393 kts | 304° |
| 2026-04-26 22:32 | 53.64114 | -3.60220 | 23489 ft | 395 kts | 304° |
| 2026-04-26 22:32 | 53.65706 | -3.64008 | 23915 ft | 397 kts | 304° |
| 2026-04-26 22:32 | 53.67304 | -3.67817 | 24326 ft | 399 kts | 304° |
| 2026-04-26 22:33 | 53.68906 | -3.71652 | 24716 ft | 401 kts | 304° |
| 2026-04-26 22:33 | 53.72136 | -3.79395 | 25492 ft | 406 kts | 303° |
| 2026-04-26 22:33 | 53.73743 | -3.83252 | 25861 ft | 408 kts | 303° |
| 2026-04-26 22:34 | 53.75375 | -3.87181 | 26227 ft | 410 kts | 303° |
| 2026-04-26 22:34 | 53.77014 | -3.91136 | 26599 ft | 412 kts | 303° |
| 2026-04-26 22:34 | 53.78659 | -3.95112 | 26940 ft | 414 kts | 303° |
| 2026-04-26 22:34 | 53.80312 | -3.99113 | 27289 ft | 416 kts | 303° |
| 2026-04-26 22:35 | 53.81969 | -4.03128 | 27633 ft | 417 kts | 303° |
| 2026-04-26 22:35 | 53.83637 | -4.07172 | 27970 ft | 419 kts | 302° |
| 2026-04-26 22:35 | 53.85309 | -4.11237 | 28292 ft | 422 kts | 302° |
| 2026-04-26 22:35 | 53.86989 | -4.15323 | 28622 ft | 424 kts | 302° |
| 2026-04-26 22:36 | 53.88674 | -4.19428 | 28926 ft | 425 kts | 302° |
| 2026-04-26 22:36 | 53.90339 | -4.23501 | 29216 ft | 427 kts | 302° |
| 2026-04-26 22:36 | 53.92033 | -4.27653 | 29503 ft | 429 kts | 301° |
| 2026-04-26 22:36 | 53.93782 | -4.31779 | 29775 ft | 433 kts | 306° |
| 2026-04-26 22:37 | 53.95855 | -4.35518 | 30049 ft | 437 kts | 312° |
| 2026-04-26 22:37 | 53.98048 | -4.39116 | 30310 ft | 439 kts | 312° |
| 2026-04-26 22:37 | 54.00241 | -4.42730 | 30573 ft | 441 kts | 312° |
| 2026-04-26 22:37 | 54.02443 | -4.46375 | 30842 ft | 442 kts | 312° |
| 2026-04-26 22:38 | 54.04646 | -4.50034 | 31144 ft | 443 kts | 311° |
| 2026-04-26 22:38 | 54.06847 | -4.53690 | 31551 ft | 441 kts | 311° |
| 2026-04-26 22:38 | 54.09041 | -4.57338 | 31947 ft | 440 kts | 311° |
| 2026-04-26 22:38 | 54.11227 | -4.60977 | 32335 ft | 439 kts | 311° |
| 2026-04-26 22:39 | 54.13375 | -4.64560 | 32709 ft | 437 kts | 311° |
| 2026-04-26 22:39 | 54.15545 | -4.68192 | 33106 ft | 436 kts | 310° |
| 2026-04-26 22:39 | 54.17701 | -4.71808 | 33477 ft | 434 kts | 310° |
| 2026-04-26 22:39 | 54.19857 | -4.75424 | 33817 ft | 434 kts | 310° |
| 2026-04-26 22:40 | 54.22004 | -4.79029 | 34156 ft | 433 kts | 310° |
| 2026-04-26 22:40 | 54.24150 | -4.82632 | 34495 ft | 432 kts | 310° |
| 2026-04-26 22:40 | 54.26289 | -4.86235 | 34804 ft | 431 kts | 310° |
| 2026-04-26 22:40 | 54.28416 | -4.89831 | 35112 ft | 430 kts | 310° |
| 2026-04-26 22:41 | 54.30541 | -4.93426 | 35399 ft | 430 kts | 311° |
| 2026-04-26 22:41 | 54.32666 | -4.97022 | 35680 ft | 429 kts | 311° |
| 2026-04-26 22:41 | 54.34786 | -5.00616 | 35952 ft | 429 kts | 311° |
| 2026-04-26 22:41 | 54.36904 | -5.04213 | 36204 ft | 429 kts | 311° |
| 2026-04-26 22:42 | 54.38990 | -5.07766 | 36298 ft | 427 kts | 311° |
| 2026-04-26 22:42 | 54.43141 | -5.14828 | 36312 ft | 424 kts | 311° |
| 2026-04-26 22:43 | 54.47317 | -5.21971 | 36329 ft | 424 kts | 311° |
| 2026-04-26 22:43 | 54.50787 | -5.27925 | 36315 ft | 424 kts | 311° |
| 2026-04-26 22:44 | 54.54953 | -5.35089 | 36329 ft | 423 kts | 311° |
| 2026-04-26 22:44 | 54.59118 | -5.42268 | 36328 ft | 424 kts | 311° |
| 2026-04-26 22:45 | 54.63957 | -5.50629 | 36331 ft | 424 kts | 311° |
| 2026-04-26 22:45 | 54.67440 | -5.56665 | 36321 ft | 423 kts | 311° |
| 2026-04-26 22:46 | 54.71590 | -5.63897 | 36325 ft | 424 kts | 311° |
| 2026-04-26 22:46 | 54.75706 | -5.71091 | 36335 ft | 424 kts | 311° |
| 2026-04-26 22:47 | 54.79848 | -5.78340 | 36337 ft | 423 kts | 311° |
| 2026-04-26 22:47 | 54.83985 | -5.85592 | 36335 ft | 423 kts | 311° |
| 2026-04-26 22:48 | 54.88108 | -5.92856 | 36338 ft | 422 kts | 311° |
| 2026-04-26 22:48 | 54.92217 | -6.00128 | 36339 ft | 421 kts | 311° |
| 2026-04-26 22:49 | 54.96328 | -6.07411 | 36341 ft | 421 kts | 311° |
| 2026-04-26 22:49 | 55.00404 | -6.14645 | 36343 ft | 421 kts | 311° |
| 2026-04-26 22:50 | 55.04505 | -6.21948 | 36345 ft | 421 kts | 311° |
| 2026-04-26 22:50 | 55.08595 | -6.29266 | 36345 ft | 421 kts | 311° |
| 2026-04-26 22:51 | 55.12669 | -6.36587 | 36345 ft | 420 kts | 311° |
| 2026-04-26 22:51 | 55.16739 | -6.43922 | 36342 ft | 420 kts | 310° |
| 2026-04-26 22:52 | 55.20798 | -6.51260 | 36341 ft | 419 kts | 310° |
| 2026-04-26 22:52 | 55.24825 | -6.58552 | 36345 ft | 419 kts | 311° |
| 2026-04-26 22:53 | 55.28874 | -6.65900 | 36342 ft | 419 kts | 310° |
| 2026-04-26 22:53 | 55.32914 | -6.73257 | 36344 ft | 418 kts | 310° |
| 2026-04-26 22:54 | 55.36938 | -6.80628 | 36342 ft | 418 kts | 310° |
| 2026-04-26 22:54 | 55.40956 | -6.88011 | 36345 ft | 418 kts | 310° |
| 2026-04-26 22:55 | 55.44974 | -6.95397 | 36344 ft | 418 kts | 310° |
| 2026-04-26 22:55 | 55.48964 | -7.02750 | 36341 ft | 417 kts | 310° |
| 2026-04-26 22:56 | 55.52968 | -7.10160 | 36345 ft | 417 kts | 310° |
| 2026-04-26 22:56 | 55.56964 | -7.17595 | 36344 ft | 417 kts | 310° |
| 2026-04-26 22:57 | 55.60952 | -7.25020 | 36342 ft | 416 kts | 310° |
| 2026-04-26 22:57 | 55.64933 | -7.32463 | 36344 ft | 416 kts | 310° |
| 2026-04-26 22:58 | 55.68913 | -7.39920 | 36346 ft | 416 kts | 310° |
| 2026-04-26 22:58 | 55.72881 | -7.47389 | 36344 ft | 416 kts | 310° |
| 2026-04-26 22:59 | 55.76812 | -7.54820 | 36341 ft | 415 kts | 310° |
| 2026-04-26 22:59 | 55.80762 | -7.62295 | 36341 ft | 415 kts | 310° |
| 2026-04-26 23:00 | 55.84706 | -7.69783 | 36336 ft | 414 kts | 310° |
| 2026-04-26 23:00 | 55.88644 | -7.77275 | 36340 ft | 414 kts | 310° |
| 2026-04-26 23:01 | 55.92565 | -7.84772 | 36339 ft | 413 kts | 310° |
| 2026-04-26 23:01 | 55.96482 | -7.92281 | 36334 ft | 413 kts | 310° |
| 2026-04-26 23:02 | 56.00364 | -7.99741 | 36339 ft | 413 kts | 310° |
| 2026-04-26 23:02 | 56.04262 | -8.07273 | 36334 ft | 412 kts | 310° |
| 2026-04-26 23:03 | 56.08158 | -8.14822 | 36329 ft | 413 kts | 310° |
| 2026-04-26 23:03 | 56.12049 | -8.22365 | 36325 ft | 412 kts | 310° |
| 2026-04-26 23:04 | 56.15937 | -8.29937 | 36331 ft | 413 kts | 310° |
| 2026-04-26 23:04 | 56.19821 | -8.37515 | 36328 ft | 412 kts | 310° |
| 2026-04-26 23:05 | 56.23692 | -8.45102 | 36321 ft | 412 kts | 310° |
| 2026-04-26 23:05 | 56.27527 | -8.52660 | 36324 ft | 411 kts | 310° |
| 2026-04-26 23:06 | 56.31378 | -8.60279 | 36324 ft | 411 kts | 310° |
| 2026-04-26 23:06 | 56.35222 | -8.67897 | 36332 ft | 410 kts | 310° |
| 2026-04-26 23:07 | 56.39058 | -8.75505 | 36324 ft | 409 kts | 310° |
| 2026-04-26 23:07 | 56.42884 | -8.83116 | 36326 ft | 409 kts | 310° |
| 2026-04-26 23:08 | 56.46694 | -8.90735 | 36320 ft | 409 kts | 310° |
| 2026-04-26 23:08 | 56.50497 | -8.98372 | 36321 ft | 408 kts | 310° |
| 2026-04-26 23:09 | 56.54271 | -9.05967 | 36314 ft | 408 kts | 310° |
| 2026-04-26 23:09 | 56.58062 | -9.13612 | 36304 ft | 407 kts | 310° |
| 2026-04-26 23:10 | 56.61843 | -9.21256 | 36300 ft | 407 kts | 310° |
| 2026-04-26 23:10 | 56.65611 | -9.28915 | 36301 ft | 406 kts | 310° |
| 2026-04-26 23:11 | 56.69358 | -9.36586 | 36300 ft | 406 kts | 310° |
| 2026-04-26 23:11 | 56.73082 | -9.44214 | 36302 ft | 405 kts | 310° |
| 2026-04-26 23:12 | 56.76824 | -9.51883 | 36302 ft | 405 kts | 310° |
| 2026-04-26 23:12 | 56.80559 | -9.59563 | 36300 ft | 405 kts | 310° |
| 2026-04-26 23:13 | 56.84291 | -9.67249 | 36298 ft | 404 kts | 310° |
| 2026-04-26 23:13 | 56.88009 | -9.74961 | 36299 ft | 404 kts | 310° |
| 2026-04-26 23:14 | 56.91728 | -9.82694 | 36294 ft | 404 kts | 310° |
| 2026-04-26 23:14 | 56.95415 | -9.90370 | 36294 ft | 404 kts | 310° |
| 2026-04-26 23:15 | 56.99114 | -9.98114 | 36293 ft | 404 kts | 311° |
| 2026-04-26 23:15 | 57.03434 | -10.04739 | 36301 ft | 406 kts | 321° |
| 2026-04-26 23:16 | 57.07946 | -10.10974 | 36299 ft | 406 kts | 321° |
| 2026-04-26 23:16 | 57.12443 | -10.17211 | 36301 ft | 404 kts | 321° |
| 2026-04-26 23:17 | 57.16923 | -10.23447 | 36301 ft | 403 kts | 321° |
| 2026-04-26 23:17 | 57.21358 | -10.29647 | 36301 ft | 402 kts | 320° |
| 2026-04-26 23:18 | 57.25811 | -10.35910 | 36296 ft | 402 kts | 320° |
| 2026-04-26 23:18 | 57.30267 | -10.42170 | 36290 ft | 402 kts | 321° |
| 2026-04-26 23:19 | 57.34724 | -10.48431 | 36289 ft | 403 kts | 320° |
| 2026-04-26 23:19 | 57.39178 | -10.54720 | 36292 ft | 402 kts | 320° |
| 2026-04-26 23:20 | 57.43621 | -10.61034 | 36290 ft | 402 kts | 320° |
| 2026-04-26 23:20 | 57.48029 | -10.67319 | 36294 ft | 402 kts | 320° |
| 2026-04-26 23:21 | 57.52467 | -10.73644 | 36296 ft | 402 kts | 320° |
| 2026-04-26 23:21 | 57.56890 | -10.79987 | 36288 ft | 401 kts | 320° |
| 2026-04-26 23:22 | 57.61304 | -10.86332 | 36281 ft | 400 kts | 320° |
| 2026-04-26 23:22 | 57.65714 | -10.92675 | 36275 ft | 400 kts | 320° |
| 2026-04-26 23:23 | 57.70088 | -10.98996 | 36274 ft | 400 kts | 320° |
| 2026-04-26 23:23 | 57.74480 | -11.05359 | 36273 ft | 399 kts | 320° |
| 2026-04-26 23:24 | 57.78854 | -11.11735 | 36275 ft | 398 kts | 320° |
| 2026-04-26 23:24 | 57.83217 | -11.18118 | 36272 ft | 398 kts | 320° |
| 2026-04-26 23:25 | 57.87580 | -11.24498 | 36274 ft | 397 kts | 320° |
| 2026-04-26 23:25 | 57.91926 | -11.30881 | 36274 ft | 396 kts | 320° |
| 2026-04-26 23:26 | 57.96239 | -11.37227 | 36272 ft | 396 kts | 320° |
| 2026-04-26 23:26 | 58.00563 | -11.43622 | 36272 ft | 395 kts | 320° |
| 2026-04-26 23:27 | 58.04880 | -11.50036 | 36268 ft | 395 kts | 320° |
| 2026-04-26 23:27 | 58.09196 | -11.56450 | 36269 ft | 394 kts | 320° |
| 2026-04-26 23:28 | 58.13499 | -11.62866 | 36269 ft | 394 kts | 320° |
| 2026-04-26 23:28 | 58.17766 | -11.69260 | 36269 ft | 393 kts | 320° |
| 2026-04-26 23:29 | 58.22055 | -11.75708 | 36265 ft | 393 kts | 320° |
| 2026-04-26 23:29 | 58.26338 | -11.82160 | 36265 ft | 393 kts | 319° |
| 2026-04-26 23:30 | 58.30619 | -11.88625 | 36263 ft | 393 kts | 319° |
| 2026-04-26 23:30 | 58.34891 | -11.95089 | 36261 ft | 393 kts | 319° |
| 2026-04-26 23:31 | 58.39160 | -12.01581 | 36253 ft | 392 kts | 319° |
| 2026-04-26 23:31 | 58.43415 | -12.08082 | 36252 ft | 392 kts | 319° |
| 2026-04-26 23:32 | 58.47630 | -12.14546 | 36248 ft | 391 kts | 319° |
| 2026-04-26 23:32 | 58.51875 | -12.21056 | 36245 ft | 391 kts | 319° |
| 2026-04-26 23:33 | 58.56116 | -12.27561 | 36241 ft | 390 kts | 319° |
| 2026-04-26 23:33 | 58.60345 | -12.34101 | 36239 ft | 390 kts | 319° |
| 2026-04-26 23:34 | 58.64567 | -12.40660 | 36236 ft | 390 kts | 319° |
| 2026-04-26 23:34 | 58.68784 | -12.47232 | 36236 ft | 391 kts | 319° |
| 2026-04-26 23:35 | 58.72972 | -12.53779 | 36236 ft | 390 kts | 319° |
| 2026-04-26 23:35 | 58.77185 | -12.60379 | 36234 ft | 390 kts | 319° |
| 2026-04-26 23:36 | 58.81399 | -12.66982 | 36234 ft | 390 kts | 319° |
| 2026-04-26 23:36 | 58.85610 | -12.73598 | 36231 ft | 390 kts | 319° |
| 2026-04-26 23:37 | 58.89812 | -12.80240 | 36228 ft | 390 kts | 319° |
| 2026-04-26 23:37 | 58.94009 | -12.86904 | 36226 ft | 390 kts | 319° |
| 2026-04-26 23:38 | 58.98177 | -12.93531 | 36223 ft | 390 kts | 319° |
| 2026-04-26 23:38 | 59.02370 | -13.00220 | 36226 ft | 390 kts | 319° |
| 2026-04-26 23:39 | 59.06549 | -13.06923 | 36224 ft | 389 kts | 318° |
| 2026-04-26 23:39 | 59.10722 | -13.13633 | 36224 ft | 389 kts | 319° |
| 2026-04-26 23:40 | 59.14899 | -13.20357 | 36226 ft | 390 kts | 319° |
| 2026-04-26 23:40 | 59.19041 | -13.27048 | 36225 ft | 389 kts | 318° |
| 2026-04-26 23:41 | 59.23204 | -13.33799 | 36222 ft | 389 kts | 318° |
| 2026-04-26 23:41 | 59.27360 | -13.40566 | 36219 ft | 389 kts | 318° |
| 2026-04-26 23:42 | 59.31510 | -13.47357 | 36217 ft | 389 kts | 318° |
| 2026-04-26 23:42 | 59.37735 | -13.57557 | 36214 ft | 389 kts | 318° |
| 2026-04-26 23:43 | 59.41886 | -13.64379 | 36213 ft | 389 kts | 318° |
| 2026-04-26 23:43 | 59.46030 | -13.71226 | 36215 ft | 389 kts | 318° |
| 2026-04-26 23:44 | 59.50142 | -13.78055 | 36214 ft | 390 kts | 318° |
| 2026-04-26 23:44 | 59.54290 | -13.84938 | 36212 ft | 390 kts | 318° |
| 2026-04-26 23:45 | 59.58425 | -13.91842 | 36207 ft | 389 kts | 317° |
| 2026-04-26 23:45 | 59.62560 | -13.98762 | 36203 ft | 390 kts | 317° |
| 2026-04-26 23:46 | 59.66696 | -14.05711 | 36207 ft | 390 kts | 317° |
| 2026-04-26 23:46 | 59.70825 | -14.12677 | 36207 ft | 390 kts | 317° |
| 2026-04-26 23:47 | 59.74918 | -14.19598 | 36208 ft | 389 kts | 317° |
| 2026-04-26 23:47 | 59.79032 | -14.26572 | 36206 ft | 389 kts | 317° |
| 2026-04-26 23:48 | 59.83146 | -14.33557 | 36206 ft | 389 kts | 317° |
| 2026-04-26 23:48 | 59.87253 | -14.40581 | 36205 ft | 389 kts | 317° |
| 2026-04-26 23:49 | 59.91357 | -14.47624 | 36189 ft | 389 kts | 317° |
| 2026-04-26 23:49 | 59.95452 | -14.54676 | 36177 ft | 389 kts | 317° |
| 2026-04-26 23:50 | 59.99508 | -14.61667 | 36171 ft | 388 kts | 317° |
| 2026-04-26 23:50 | 60.03588 | -14.68724 | 36156 ft | 388 kts | 317° |
| 2026-04-26 23:51 | 60.07666 | -14.75819 | 36148 ft | 389 kts | 316° |
| 2026-04-26 23:51 | 60.11753 | -14.82935 | 36145 ft | 389 kts | 317° |
| 2026-04-26 23:52 | 60.15835 | -14.90068 | 36139 ft | 389 kts | 316° |
| 2026-04-26 23:52 | 60.19879 | -14.97173 | 36144 ft | 389 kts | 316° |
| 2026-04-26 23:53 | 60.23944 | -15.04331 | 36145 ft | 388 kts | 316° |
| 2026-04-26 23:53 | 60.28002 | -15.11494 | 36149 ft | 388 kts | 316° |
| 2026-04-26 23:54 | 60.32043 | -15.18667 | 36147 ft | 387 kts | 316° |
| 2026-04-26 23:54 | 60.36078 | -15.25839 | 36134 ft | 386 kts | 316° |
| 2026-04-26 23:55 | 60.40103 | -15.33025 | 36137 ft | 386 kts | 316° |
| 2026-04-26 23:55 | 60.44094 | -15.40182 | 36143 ft | 385 kts | 316° |
| 2026-04-26 23:56 | 60.48095 | -15.47396 | 36135 ft | 385 kts | 316° |
| 2026-04-26 23:56 | 60.52094 | -15.54601 | 36143 ft | 384 kts | 316° |
| 2026-04-26 23:57 | 60.56089 | -15.61818 | 36127 ft | 384 kts | 316° |
| 2026-04-26 23:57 | 60.60072 | -15.69054 | 36131 ft | 384 kts | 316° |
| 2026-04-26 23:58 | 60.64051 | -15.76307 | 36134 ft | 384 kts | 315° |
| 2026-04-26 23:58 | 60.67998 | -15.83536 | 36121 ft | 384 kts | 315° |
| 2026-04-26 23:59 | 60.71970 | -15.90818 | 36119 ft | 384 kts | 315° |
| 2026-04-26 23:59 | 60.75944 | -15.98123 | 36124 ft | 384 kts | 315° |
| 2026-04-27 00:00 | 60.79946 | -16.05509 | 36420 ft | 389 kts | 315° |
| 2026-04-27 00:00 | 60.81960 | -16.09236 | 36617 ft | 391 kts | 315° |
| 2026-04-27 00:00 | 60.83976 | -16.12988 | 36796 ft | 393 kts | 315° |
| 2026-04-27 00:01 | 60.85996 | -16.16757 | 37061 ft | 392 kts | 315° |
| 2026-04-27 00:01 | 60.87987 | -16.20469 | 37309 ft | 392 kts | 315° |
| 2026-04-27 00:01 | 60.90002 | -16.24231 | 37501 ft | 393 kts | 315° |
| 2026-04-27 00:01 | 60.92025 | -16.28021 | 37646 ft | 394 kts | 315° |
| 2026-04-27 00:02 | 60.94057 | -16.31833 | 37800 ft | 396 kts | 315° |
| 2026-04-27 00:02 | 60.96095 | -16.35664 | 37931 ft | 397 kts | 315° |
| 2026-04-27 00:02 | 60.98133 | -16.39501 | 38071 ft | 398 kts | 315° |
| 2026-04-27 00:02 | 61.00185 | -16.43364 | 38102 ft | 401 kts | 315° |
| 2026-04-27 00:03 | 61.04310 | -16.51134 | 38101 ft | 402 kts | 315° |
| 2026-04-27 00:03 | 61.08410 | -16.58887 | 38098 ft | 402 kts | 315° |
| 2026-04-27 00:04 | 61.12532 | -16.66724 | 38101 ft | 403 kts | 314° |
| 2026-04-27 00:04 | 61.16649 | -16.74592 | 38096 ft | 403 kts | 314° |
| 2026-04-27 00:05 | 61.20767 | -16.82486 | 38099 ft | 403 kts | 314° |
| 2026-04-27 00:05 | 61.24882 | -16.90415 | 38099 ft | 403 kts | 314° |
| 2026-04-27 00:06 | 61.29003 | -16.98342 | 38100 ft | 404 kts | 314° |
| 2026-04-27 00:06 | 61.33085 | -17.06255 | 38102 ft | 404 kts | 314° |
| 2026-04-27 00:07 | 61.37192 | -17.14246 | 38100 ft | 404 kts | 314° |
| 2026-04-27 00:07 | 61.41290 | -17.22257 | 38103 ft | 404 kts | 314° |
| 2026-04-27 00:08 | 61.45388 | -17.30305 | 38104 ft | 404 kts | 314° |
| 2026-04-27 00:08 | 61.49468 | -17.38338 | 38116 ft | 402 kts | 313° |
| 2026-04-27 00:09 | 61.52840 | -17.44992 | 38117 ft | 400 kts | 313° |
| 2026-04-27 00:09 | 61.57534 | -17.54271 | 38113 ft | 398 kts | 313° |
| 2026-04-27 00:10 | 61.61546 | -17.62267 | 38111 ft | 397 kts | 313° |
| 2026-04-27 00:10 | 61.65550 | -17.70286 | 38106 ft | 398 kts | 313° |
| 2026-04-27 00:11 | 61.68879 | -17.76946 | 38100 ft | 397 kts | 313° |
| 2026-04-27 00:11 | 61.72866 | -17.84956 | 38094 ft | 396 kts | 313° |
| 2026-04-27 00:12 | 61.77498 | -17.94305 | 38093 ft | 396 kts | 313° |
| 2026-04-27 00:12 | 61.80833 | -18.01064 | 38082 ft | 397 kts | 313° |
| 2026-04-27 00:13 | 61.84791 | -18.09120 | 38092 ft | 397 kts | 312° |
| 2026-04-27 00:13 | 61.88773 | -18.17241 | 38002 ft | 397 kts | 312° |
| 2026-04-27 00:14 | 61.93376 | -18.26684 | 37993 ft | 396 kts | 312° |
| 2026-04-27 00:14 | 61.96693 | -18.33521 | 37995 ft | 397 kts | 312° |
| 2026-04-27 00:15 | 62.00625 | -18.41637 | 37997 ft | 396 kts | 312° |
| 2026-04-27 00:15 | 62.04577 | -18.49830 | 37991 ft | 396 kts | 312° |
| 2026-04-27 00:16 | 62.08523 | -18.58044 | 37986 ft | 397 kts | 312° |
| 2026-04-27 00:16 | 62.12473 | -18.66284 | 37978 ft | 397 kts | 312° |
| 2026-04-27 00:17 | 62.16418 | -18.74540 | 37959 ft | 397 kts | 311° |
| 2026-04-27 00:17 | 62.20331 | -18.82782 | 37964 ft | 397 kts | 311° |
| 2026-04-27 00:18 | 62.24270 | -18.91099 | 37960 ft | 397 kts | 311° |
| 2026-04-27 00:18 | 62.28201 | -18.99446 | 37962 ft | 398 kts | 311° |
| 2026-04-27 00:19 | 62.32129 | -19.07828 | 37967 ft | 398 kts | 311° |
| 2026-04-27 00:19 | 62.36057 | -19.16239 | 37961 ft | 399 kts | 310° |
| 2026-04-27 00:20 | 62.39990 | -19.24688 | 37951 ft | 400 kts | 310° |
| 2026-04-27 00:20 | 62.43893 | -19.33079 | 37946 ft | 398 kts | 311° |
| 2026-04-27 00:21 | 62.47816 | -19.41527 | 37939 ft | 399 kts | 310° |
| 2026-04-27 00:21 | 62.49797 | -19.45810 | 37465 ft | 405 kts | 310° |
| 2026-04-27 00:21 | 62.51779 | -19.50135 | 36902 ft | 404 kts | 310° |
| 2026-04-27 00:22 | 62.53747 | -19.54456 | 36369 ft | 402 kts | 308° |
| 2026-04-27 00:22 | 62.55637 | -19.58886 | 35819 ft | 398 kts | 306° |
| 2026-04-27 00:22 | 62.57450 | -19.63444 | 35314 ft | 402 kts | 304° |
| 2026-04-27 00:22 | 62.59235 | -19.68131 | 34809 ft | 404 kts | 303° |
| 2026-04-27 00:23 | 62.61005 | -19.72836 | 34313 ft | 400 kts | 303° |
| 2026-04-27 00:23 | 62.62735 | -19.77414 | 33821 ft | 394 kts | 303° |
| 2026-04-27 00:23 | 62.64472 | -19.81976 | 33318 ft | 389 kts | 303° |
| 2026-04-27 00:23 | 62.66198 | -19.86470 | 32817 ft | 385 kts | 303° |
| 2026-04-27 00:24 | 62.67914 | -19.90908 | 32316 ft | 381 kts | 303° |
| 2026-04-27 00:24 | 62.69615 | -19.95293 | 31815 ft | 377 kts | 303° |
| 2026-04-27 00:24 | 62.71300 | -19.99655 | 31308 ft | 375 kts | 303° |
| 2026-04-27 00:24 | 62.72962 | -20.03993 | 30817 ft | 372 kts | 303° |
| 2026-04-27 00:25 | 62.74618 | -20.08325 | 30315 ft | 371 kts | 303° |
| 2026-04-27 00:25 | 62.76269 | -20.12647 | 29805 ft | 370 kts | 303° |
| 2026-04-27 00:25 | 62.77910 | -20.16942 | 29310 ft | 368 kts | 303° |
| 2026-04-27 00:25 | 62.79543 | -20.21232 | 28806 ft | 366 kts | 303° |
| 2026-04-27 00:26 | 62.81169 | -20.25524 | 28306 ft | 366 kts | 303° |
| 2026-04-27 00:26 | 62.82785 | -20.29802 | 27804 ft | 364 kts | 303° |
| 2026-04-27 00:26 | 62.84377 | -20.34011 | 27311 ft | 364 kts | 303° |
| 2026-04-27 00:26 | 62.85988 | -20.38273 | 26808 ft | 363 kts | 303° |
| 2026-04-27 00:27 | 62.87594 | -20.42533 | 26304 ft | 362 kts | 303° |
| 2026-04-27 00:27 | 62.89197 | -20.46794 | 25819 ft | 362 kts | 303° |
| 2026-04-27 00:27 | 62.90798 | -20.51052 | 25305 ft | 361 kts | 303° |
| 2026-04-27 00:27 | 62.92389 | -20.55300 | 24809 ft | 360 kts | 303° |
| 2026-04-27 00:28 | 62.93976 | -20.59549 | 24299 ft | 359 kts | 303° |
| 2026-04-27 00:28 | 62.95557 | -20.63786 | 23795 ft | 359 kts | 303° |
| 2026-04-27 00:28 | 62.97136 | -20.68023 | 23299 ft | 358 kts | 303° |
| 2026-04-27 00:28 | 62.98709 | -20.72249 | 22795 ft | 357 kts | 303° |
| 2026-04-27 00:29 | 63.00260 | -20.76415 | 22303 ft | 356 kts | 303° |
| 2026-04-27 00:29 | 63.01822 | -20.80620 | 21990 ft | 354 kts | 303° |
| 2026-04-27 00:29 | 63.03384 | -20.84842 | 21932 ft | 356 kts | 303° |
| 2026-04-27 00:29 | 63.04951 | -20.89083 | 21943 ft | 358 kts | 303° |
| 2026-04-27 00:30 | 63.06520 | -20.93347 | 21944 ft | 358 kts | 303° |
| 2026-04-27 00:30 | 63.08089 | -20.97618 | 21944 ft | 358 kts | 303° |
| 2026-04-27 00:30 | 63.09656 | -21.01890 | 21943 ft | 358 kts | 303° |
| 2026-04-27 00:30 | 63.11223 | -21.06175 | 21936 ft | 358 kts | 303° |
| 2026-04-27 00:31 | 63.12787 | -21.10451 | 21934 ft | 358 kts | 303° |
| 2026-04-27 00:31 | 63.14327 | -21.14662 | 21934 ft | 358 kts | 303° |
| 2026-04-27 00:31 | 63.15921 | -21.19033 | 21933 ft | 358 kts | 303° |
| 2026-04-27 00:31 | 63.17490 | -21.23320 | 21930 ft | 359 kts | 305° |
| 2026-04-27 00:32 | 63.19300 | -21.27109 | 21925 ft | 368 kts | 316° |
| 2026-04-27 00:32 | 63.21498 | -21.30112 | 21924 ft | 376 kts | 327° |
| 2026-04-27 00:32 | 63.23842 | -21.32689 | 21923 ft | 376 kts | 327° |
| 2026-04-27 00:32 | 63.26190 | -21.35283 | 21921 ft | 377 kts | 327° |
| 2026-04-27 00:33 | 63.28564 | -21.37925 | 21933 ft | 387 kts | 327° |
| 2026-04-27 00:33 | 63.30983 | -21.40626 | 21934 ft | 390 kts | 327° |
| 2026-04-27 00:33 | 63.33413 | -21.43335 | 21850 ft | 392 kts | 327° |
| 2026-04-27 00:33 | 63.35847 | -21.46048 | 21257 ft | 390 kts | 327° |
| 2026-04-27 00:34 | 63.38271 | -21.48755 | 20626 ft | 389 kts | 327° |
| 2026-04-27 00:34 | 63.40688 | -21.51455 | 20026 ft | 387 kts | 328° |
| 2026-04-27 00:34 | 63.43086 | -21.54138 | 19416 ft | 386 kts | 328° |
| 2026-04-27 00:34 | 63.45481 | -21.56826 | 18842 ft | 384 kts | 328° |
| 2026-04-27 00:35 | 63.47864 | -21.59514 | 18262 ft | 382 kts | 328° |
| 2026-04-27 00:35 | 63.50202 | -21.62161 | 17714 ft | 381 kts | 329° |
| 2026-04-27 00:35 | 63.52563 | -21.64835 | 17168 ft | 379 kts | 329° |
| 2026-04-27 00:35 | 63.54911 | -21.67503 | 16647 ft | 377 kts | 329° |
| 2026-04-27 00:36 | 63.57247 | -21.70159 | 16135 ft | 376 kts | 329° |
| 2026-04-27 00:36 | 63.59552 | -21.72783 | 15907 ft | 365 kts | 329° |
| 2026-04-27 00:36 | 63.61778 | -21.75311 | 15921 ft | 355 kts | 329° |
| 2026-04-27 00:36 | 63.63973 | -21.77814 | 15930 ft | 354 kts | 329° |
| 2026-04-27 00:37 | 63.66169 | -21.80327 | 15926 ft | 354 kts | 329° |
| 2026-04-27 00:37 | 63.68358 | -21.82841 | 15930 ft | 353 kts | 328° |
| 2026-04-27 00:37 | 63.70549 | -21.85373 | 15468 ft | 357 kts | 328° |
| 2026-04-27 00:37 | 63.72796 | -21.87984 | 14614 ft | 367 kts | 328° |
| 2026-04-27 00:38 | 63.75069 | -21.90620 | 14103 ft | 366 kts | 329° |
| 2026-04-27 00:38 | 63.77303 | -21.93202 | 13626 ft | 364 kts | 329° |
| 2026-04-27 00:38 | 63.79549 | -21.95795 | 13153 ft | 362 kts | 329° |
| 2026-04-27 00:38 | 63.81782 | -21.98374 | 12671 ft | 359 kts | 329° |
| 2026-04-27 00:39 | 63.83998 | -22.00938 | 12204 ft | 357 kts | 329° |
| 2026-04-27 00:39 | 63.86212 | -22.03498 | 11716 ft | 356 kts | 329° |
| 2026-04-27 00:39 | 63.88404 | -22.06045 | 11242 ft | 350 kts | 329° |
| 2026-04-27 00:39 | 63.90514 | -22.08496 | 10754 ft | 331 kts | 329° |
| 2026-04-27 00:40 | 63.92513 | -22.10824 | 10282 ft | 317 kts | 329° |
| 2026-04-27 00:40 | 63.94461 | -22.13096 | 9807 ft | 313 kts | 329° |
| 2026-04-27 00:40 | 63.96386 | -22.15354 | 9331 ft | 310 kts | 329° |
| 2026-04-27 00:40 | 63.98301 | -22.17610 | 8851 ft | 309 kts | 330° |
| 2026-04-27 00:41 | 64.00204 | -22.19856 | 8375 ft | 307 kts | 330° |
| 2026-04-27 00:41 | 64.02094 | -22.22094 | 7903 ft | 306 kts | 330° |
| 2026-04-27 00:41 | 64.03956 | -22.24303 | 7415 ft | 304 kts | 330° |
| 2026-04-27 00:41 | 64.05827 | -22.26523 | 6949 ft | 302 kts | 330° |
| 2026-04-27 00:42 | 64.07665 | -22.28698 | 6516 ft | 291 kts | 330° |
| 2026-04-27 00:42 | 64.09403 | -22.30832 | 6088 ft | 275 kts | 324° |
| 2026-04-27 00:42 | 64.10896 | -22.33326 | 5749 ft | 256 kts | 319° |
| 2026-04-27 00:42 | 64.12275 | -22.35699 | 5414 ft | 242 kts | 320° |
| 2026-04-27 00:43 | 64.13588 | -22.37961 | 5095 ft | 229 kts | 318° |
| 2026-04-27 00:43 | 64.14592 | -22.40609 | 4798 ft | 216 kts | 292° |
| 2026-04-27 00:43 | 64.15009 | -22.43782 | 4580 ft | 206 kts | 272° |
| 2026-04-27 00:43 | 64.15519 | -22.46888 | 4420 ft | 216 kts | 302° |
| 2026-04-27 00:44 | 64.16616 | -22.49297 | 4281 ft | 220 kts | 319° |
| 2026-04-27 00:44 | 64.18040 | -22.50463 | 4106 ft | 221 kts | 4° |
| 2026-04-27 00:44 | 64.19388 | -22.49163 | 4017 ft | 208 kts | 52° |
| 2026-04-27 00:44 | 64.19879 | -22.46319 | 4020 ft | 187 kts | 100° |
| 2026-04-27 00:45 | 64.19358 | -22.43761 | 4040 ft | 176 kts | 134° |
| 2026-04-27 00:45 | 64.18499 | -22.41849 | 4027 ft | 174 kts | 144° |
| 2026-04-27 00:45 | 64.17499 | -22.40314 | 4024 ft | 173 kts | 153° |
| 2026-04-27 00:45 | 64.16441 | -22.39004 | 4023 ft | 173 kts | 152° |
| 2026-04-27 00:46 | 64.15386 | -22.37676 | 4022 ft | 172 kts | 155° |
| 2026-04-27 00:46 | 64.14259 | -22.36772 | 4018 ft | 172 kts | 168° |
| 2026-04-27 00:46 | 64.13066 | -22.36716 | 3960 ft | 172 kts | 186° |
| 2026-04-27 00:46 | 64.11967 | -22.37687 | 3711 ft | 170 kts | 207° |
| 2026-04-27 00:47 | 64.11133 | -22.39599 | 3448 ft | 172 kts | 230° |
| 2026-04-27 00:47 | 64.10705 | -22.42186 | 3188 ft | 178 kts | 254° |
| 2026-04-27 00:47 | 64.10678 | -22.45030 | 2940 ft | 177 kts | 263° |
| 2026-04-27 00:47 | 64.10687 | -22.47834 | 2698 ft | 175 kts | 263° |
| 2026-04-27 00:48 | 64.10695 | -22.50561 | 2452 ft | 173 kts | 263° |
| 2026-04-27 00:48 | 64.10705 | -22.53290 | 2203 ft | 170 kts | 263° |
| 2026-04-27 00:48 | 64.10526 | -22.55827 | 2141 ft | 155 kts | 242° |
| 2026-04-27 00:48 | 64.10026 | -22.57903 | 2151 ft | 145 kts | 224° |
| 2026-04-27 00:49 | 64.09310 | -22.59415 | 2061 ft | 137 kts | 207° |
| 2026-04-27 00:49 | 64.08460 | -22.60295 | 1941 ft | 133 kts | 192° |
| 2026-04-27 00:49 | 64.07542 | -22.60540 | 1795 ft | 134 kts | 177° |
| 2026-04-27 00:49 | 64.06609 | -22.60538 | 1631 ft | 134 kts | 177° |
| 2026-04-27 00:50 | 64.05674 | -22.60539 | 1456 ft | 134 kts | 177° |
| 2026-04-27 00:50 | 64.03829 | -22.60536 | 1159 ft | 134 kts | 177° |
| 2026-04-27 00:50 | 64.02898 | -22.60534 | 994 ft | 134 kts | 180° |
| 2026-04-27 00:51 | 64.01966 | -22.60532 | 791 ft | 133 kts | 176° |
| 2026-04-27 00:51 | 64.01039 | -22.60525 | 643 ft | 134 kts | 178° |
| 2026-04-27 00:51 | 64.00110 | -22.60547 | 392 ft | 133 kts | 179° |
| 2026-04-27 00:51 | 63.99190 | -22.60539 | 226 ft | 132 kts | 179° |
| 2026-04-27 00:52 | 63.98306 | -22.60538 | 173 ft | 114 kts | 179° |
| 2026-04-27 00:52 | 63.97648 | -22.60541 | 173 ft | 74 kts | 179° |
| 2026-04-27 00:52 | 63.97449 | -22.60604 | 172 ft | 16 kts | 237° |
| 2026-04-27 00:52 | 63.97450 | -22.60837 | 167 ft | 6 kts | 285° |
| 2026-04-27 00:53 | 63.97451 | -22.60850 | 167 ft | 0 kts | 285° |
| 2026-04-27 00:53 | 63.97462 | -22.60918 | 166 ft | 12 kts | 301° |
| 2026-04-27 00:53 | 63.97506 | -22.60938 | 166 ft | 5 kts | 4° |
| 2026-04-27 00:53 | 63.97586 | -22.60934 | 167 ft | 18 kts | 359° |
| 2026-04-27 00:54 | 63.97743 | -22.60940 | 169 ft | 24 kts | 359° |
| 2026-04-27 00:54 | 63.97904 | -22.60944 | 170 ft | 23 kts | 359° |
| 2026-04-27 00:54 | 63.98062 | -22.60944 | 168 ft | 23 kts | 0° |
| 2026-04-27 00:54 | 63.98223 | -22.60939 | 165 ft | 24 kts | 1° |
| 2026-04-27 00:55 | 63.98385 | -22.60942 | 166 ft | 23 kts | 359° |
| 2026-04-27 00:55 | 63.98540 | -22.60945 | 165 ft | 22 kts | 0° |
| 2026-04-27 00:55 | 63.98696 | -22.60939 | 163 ft | 23 kts | 1° |
| 2026-04-27 00:55 | 63.98831 | -22.60937 | 163 ft | 17 kts | 0° |
| 2026-04-27 00:56 | 63.98938 | -22.60938 | 167 ft | 14 kts | 359° |
| 2026-04-27 00:56 | 63.99051 | -22.60935 | 166 ft | 21 kts | 2° |
| 2026-04-27 00:56 | 63.99169 | -22.61012 | 159 ft | 16 kts | 291° |
| 2026-04-27 00:56 | 63.99170 | -22.61233 | 155 ft | 13 kts | 268° |
| 2026-04-27 00:57 | 63.99171 | -22.61451 | 150 ft | 15 kts | 273° |
| 2026-04-27 00:57 | 63.99173 | -22.61729 | 144 ft | 20 kts | 271° |
| 2026-04-27 00:57 | 63.99179 | -22.62037 | 140 ft | 18 kts | 275° |
| 2026-04-27 00:57 | 63.99183 | -22.62297 | 140 ft | 14 kts | 269° |
| 2026-04-27 00:58 | 63.99179 | -22.62497 | 140 ft | 11 kts | 262° |
| 2026-04-27 00:58 | 63.99178 | -22.62625 | 140 ft | 6 kts | 291° |
| 2026-04-27 00:58 | 63.99207 | -22.62668 | 140 ft | 6 kts | 345° |
| 2026-04-27 00:58 | 63.99258 | -22.62721 | 140 ft | 10 kts | 327° |
| 2026-04-27 00:59 | 63.99348 | -22.62745 | 140 ft | 16 kts | 5° |
| 2026-04-27 00:59 | 63.99420 | -22.62652 | 140 ft | 9 kts | 71° |
| 2026-04-27 00:59 | 63.99422 | -22.62539 | 140 ft | 5 kts | 88° |
| 2026-04-27 00:59 | 63.99422 | -22.62491 | 140 ft | 1 kts | 90° |
| 2026-04-27 01:00 | 63.99422 | -22.62484 | 140 ft | 0 kts | 90° |